Observation data for Reese Center on 06/25/2019      Previous  Date  Next       Current Mesonet Observations  Soil Data  Daily Summary Page  Observations in Plain Language
KREE 250500Z 14014G19KT 22/17 A2998 RMK A01 T02240174  RH  075%=      5-min Rain = 0
KREE 250505Z 14013KT 22/17 A2999 RMK A01 T02240173  RH  075%=      5-min Rain = 0
KREE 250510Z 14013KT 22/17 A2999 RMK A01 T02230172  RH  074%=      5-min Rain = 0
KREE 250515Z 14014KT 22/17 A2999 RMK A01 T02230172  RH  075%=      5-min Rain = 0
KREE 250520Z 15014KT 22/17 A2999 RMK A01 T02230173  RH  075%=      5-min Rain = 0
KREE 250525Z 15015KT 22/17 A2998 RMK A01 T02230174  RH  075%=      5-min Rain = 0
KREE 250530Z 14013KT 22/18 A2998 RMK A01 T02230175  RH  076%=      5-min Rain = 0
KREE 250535Z 15013KT 22/18 A2998 RMK A01 T02220177  RH  078%=      5-min Rain = 0
KREE 250540Z 15012KT 22/18 A2999 RMK A01 T02210178  RH  078%=      5-min Rain = 0
KREE 250545Z 15011G16KT 22/18 A2999 RMK A01 T02190178  RH  079%=      5-min Rain = 0
KREE 250550Z 15012KT 22/18 A2999 RMK A01 T02180178  RH  080%=      5-min Rain = 0
KREE 250555Z 16012KT 22/18 A2998 RMK A01 T02170177  RH  080%=      5-min Rain = 0
KREE 250600Z 16013G19KT 22/17 A2998 RMK A01 T02170170  RH  077%=      5-min Rain = 0
KREE 250605Z 16014G20KT 22/16 A2998 RMK A01 T02170161  RH  072%=      5-min Rain = 0
KREE 250610Z 16012KT 22/15 A2998 RMK A01 T02170152  RH  068%=      5-min Rain = 0
KREE 250615Z 16011KT 22/15 A2998 RMK A01 T02150147  RH  067%=      5-min Rain = 0
KREE 250620Z 16012KT 22/14 A2998 RMK A01 T02150144  RH  065%=      5-min Rain = 0
KREE 250625Z 17012KT 21/14 A2998 RMK A01 T02140142  RH  065%=      5-min Rain = 0
KREE 250630Z 17012KT 21/14 A2998 RMK A01 T02130140  RH  064%=      5-min Rain = 0
KREE 250635Z 18012KT 21/14 A2998 RMK A01 T02120138  RH  064%=      5-min Rain = 0
KREE 250640Z 18013KT 21/13 A2998 RMK A01 T02110133  RH  062%=      5-min Rain = 0
KREE 250645Z 17012KT 21/13 A2998 RMK A01 T02090130  RH  061%=      5-min Rain = 0
KREE 250650Z 17011KT 21/13 A2998 RMK A01 T02080127  RH  061%=      5-min Rain = 0
KREE 250655Z 18012KT 21/12 A2997 RMK A01 T02050124  RH  061%=      5-min Rain = 0
KREE 250700Z 18012KT 20/12 A2997 RMK A01 T02030123  RH  061%=      5-min Rain = 0
KREE 250705Z 18011KT 20/12 A2997 RMK A01 T02020123  RH  062%=      5-min Rain = 0
KREE 250710Z 18011KT 20/12 A2997 RMK A01 T02010123  RH  062%=      5-min Rain = 0
KREE 250715Z 18010KT 20/12 A2997 RMK A01 T01990123  RH  063%=      5-min Rain = 0
KREE 250720Z 18010KT 20/12 A2997 RMK A01 T01970124  RH  064%=      5-min Rain = 0
KREE 250725Z 18009KT 20/12 A2997 RMK A01 T01950124  RH  065%=      5-min Rain = 0
KREE 250730Z 19008KT 19/13 A2997 RMK A01 T01930125  RH  066%=      5-min Rain = 0
KREE 250735Z 18008KT 19/13 A2997 RMK A01 T01910125  RH  067%=      5-min Rain = 0
KREE 250740Z 18009KT 19/12 A2997 RMK A01 T01900124  RH  067%=      5-min Rain = 0
KREE 250745Z 18009KT 19/13 A2997 RMK A01 T01880125  RH  068%=      5-min Rain = 0
KREE 250750Z 18009KT 19/13 A2997 RMK A01 T01870125  RH  068%=      5-min Rain = 0
KREE 250755Z 19008KT 19/13 A2997 RMK A01 T01850125  RH  069%=      5-min Rain = 0
KREE 250800Z 19008KT 18/13 A2997 RMK A01 T01830125  RH  070%=      5-min Rain = 0
KREE 250805Z 19008KT 18/13 A2997 RMK A01 T01830125  RH  070%=      5-min Rain = 0
KREE 250810Z 19007KT 18/12 A2997 RMK A01 T01820124  RH  071%=      5-min Rain = 0
KREE 250815Z 19007KT 18/12 A2997 RMK A01 T01800124  RH  071%=      5-min Rain = 0
KREE 250820Z 18006KT 18/12 A2997 RMK A01 T01790124  RH  072%=      5-min Rain = 0
KREE 250825Z 18007KT 18/12 A2997 RMK A01 T01770124  RH  072%=      5-min Rain = 0
KREE 250830Z 19007KT 18/12 A2997 RMK A01 T01750124  RH  073%=      5-min Rain = 0
KREE 250835Z 18007KT 17/12 A2997 RMK A01 T01740124  RH  074%=      5-min Rain = 0
KREE 250840Z 19006KT 17/12 A2997 RMK A01 T01730124  RH  074%=      5-min Rain = 0
KREE 250845Z 19006KT 17/12 A2997 RMK A01 T01710124  RH  075%=      5-min Rain = 0
KREE 250850Z 18007KT 17/12 A2997 RMK A01 T01700124  RH  076%=      5-min Rain = 0
KREE 250855Z 18007KT 17/12 A2997 RMK A01 T01690123  RH  076%=      5-min Rain = 0
KREE 250900Z 19009KT 17/12 A2997 RMK A01 T01690123  RH  076%=      5-min Rain = 0
KREE 250905Z 19010KT 17/12 A2997 RMK A01 T01680123  RH  077%=      5-min Rain = 0
KREE 250910Z 19009KT 17/12 A2997 RMK A01 T01670124  RH  077%=      5-min Rain = 0
KREE 250915Z 19009KT 17/13 A2997 RMK A01 T01680125  RH  077%=      5-min Rain = 0
KREE 250920Z 19009KT 17/13 A2997 RMK A01 T01690125  RH  076%=      5-min Rain = 0
KREE 250925Z 19010KT 17/13 A2997 RMK A01 T01710125  RH  076%=      5-min Rain = 0
KREE 250930Z 19010KT 17/13 A2997 RMK A01 T01710125  RH  076%=      5-min Rain = 0
KREE 250935Z 19010KT 17/13 A2997 RMK A01 T01720125  RH  075%=      5-min Rain = 0
KREE 250940Z 19010KT 17/13 A2998 RMK A01 T01720125  RH  075%=      5-min Rain = 0
KREE 250945Z 20010KT 17/13 A2998 RMK A01 T01720125  RH  075%=      5-min Rain = 0
KREE 250950Z 20010KT 17/13 A2998 RMK A01 T01710125  RH  076%=      5-min Rain = 0
KREE 250955Z 20010KT 17/13 A2998 RMK A01 T01710125  RH  076%=      5-min Rain = 0
KREE 251000Z 20010KT 17/13 A2998 RMK A01 T01710125  RH  076%=      5-min Rain = 0
KREE 251005Z 20010KT 17/13 A2998 RMK A01 T01720125  RH  076%=      5-min Rain = 0
KREE 251010Z 21009KT 17/13 A2998 RMK A01 T01710126  RH  076%=      5-min Rain = 0
KREE 251015Z 22009KT 17/13 A2998 RMK A01 T01680126  RH  077%=      5-min Rain = 0
KREE 251020Z 22008KT 17/13 A2998 RMK A01 T01670126  RH  078%=      5-min Rain = 0
KREE 251025Z 21008KT 17/13 A2998 RMK A01 T01650126  RH  079%=      5-min Rain = 0
KREE 251030Z 22009KT 17/13 A2998 RMK A01 T01650127  RH  080%=      5-min Rain = 0
KREE 251035Z 22009KT 17/13 A2998 RMK A01 T01650127  RH  079%=      5-min Rain = 0
KREE 251040Z 22008KT 16/13 A2999 RMK A01 T01630127  RH  081%=      5-min Rain = 0
KREE 251045Z 22007KT 16/13 A2999 RMK A01 T01600126  RH  082%=      5-min Rain = 0
KREE 251050Z 22008KT 16/13 A2999 RMK A01 T01590126  RH  082%=      5-min Rain = 0
KREE 251055Z 23008KT 16/13 A2999 RMK A01 T01590127  RH  083%=      5-min Rain = 0
KREE 251100Z 23007KT 16/13 A2999 RMK A01 T01610127  RH  082%=      5-min Rain = 0
KREE 251105Z 23007KT 16/13 A30 RMK A01 T01590127  RH  083%=      5-min Rain = 0
KREE 251110Z 23008KT 16/13 A30 RMK A01 T01570126  RH  084%=      5-min Rain = 0
KREE 251115Z 23007KT 16/13 A30 RMK A01 T01570127  RH  084%=      5-min Rain = 0
KREE 251120Z 23008KT 16/13 A30 RMK A01 T01570126  RH  083%=      5-min Rain = 0
KREE 251125Z 23008KT 16/13 A30 RMK A01 T01580126  RH  083%=      5-min Rain = 0
KREE 251130Z 24007KT 16/13 A30 RMK A01 T01560126  RH  084%=      5-min Rain = 0
KREE 251135Z 24007KT 15/13 A30 RMK A01 T01530126  RH  085%=      5-min Rain = 0
KREE 251140Z 24006KT 16/13 A30 RMK A01 T01550127  RH  085%=      5-min Rain = 0
KREE 251145Z 24006KT 16/13 A30 RMK A01 T01560127  RH  084%=      5-min Rain = 0
KREE 251150Z 24006KT 16/13 A30 RMK A01 T01560127  RH  084%=      5-min Rain = 0
KREE 251155Z 23006KT 16/13 A30 RMK A01 T01580127  RH  084%=      5-min Rain = 0
KREE 251200Z 22006KT 16/13 A30 RMK A01 T01590127  RH  083%=      5-min Rain = 0
KREE 251205Z 21007KT 16/13 A3001 RMK A01 T01590128  RH  083%=      5-min Rain = 0
KREE 251210Z 21008KT 16/13 A3001 RMK A01 T01630129  RH  082%=      5-min Rain = 0
KREE 251215Z 21007KT 17/13 A3001 RMK A01 T01670130  RH  080%=      5-min Rain = 0
KREE 251220Z 22006KT 17/13 A3001 RMK A01 T01700130  RH  079%=      5-min Rain = 0
KREE 251225Z 24004KT 17/13 A3001 RMK A01 T01710131  RH  079%=      5-min Rain = 0
KREE 251230Z 26003KT 17/13 A3002 RMK A01 T01710132  RH  079%=      5-min Rain = 0
KREE 251235Z 25002KT 17/13 A3002 RMK A01 T01740133  RH  078%=      5-min Rain = 0
KREE 251240Z 23002KT 18/13 A3002 RMK A01 T01790133  RH  076%=      5-min Rain = 0
KREE 251245Z 23003KT 18/13 A3003 RMK A01 T01820133  RH  075%=      5-min Rain = 0
KREE 251250Z 24003KT 18/13 A3003 RMK A01 T01840134  RH  074%=      5-min Rain = 0
KREE 251255Z 25004KT 19/13 A3003 RMK A01 T01870134  RH  073%=      5-min Rain = 0
KREE 251300Z 24004KT 19/14 A3003 RMK A01 T01900135  RH  072%=      5-min Rain = 0
KREE 251305Z 23006KT 19/14 A3003 RMK A01 T01920135  RH  071%=      5-min Rain = 0
KREE 251310Z 23007KT 20/13 A3003 RMK A01 T01950134  RH  069%=      5-min Rain = 0
KREE 251315Z 23008KT 20/13 A3003 RMK A01 T01990134  RH  068%=      5-min Rain = 0
KREE 251320Z 23008KT 20/14 A3003 RMK A01 T02030135  RH  066%=      5-min Rain = 0
KREE 251325Z 23010KT 21/13 A3003 RMK A01 T02060133  RH  064%=      5-min Rain = 0
KREE 251330Z 23010KT 21/13 A3003 RMK A01 T02080133  RH  063%=      5-min Rain = 0
KREE 251335Z 23007KT 21/14 A3003 RMK A01 T02120135  RH  063%=      5-min Rain = 0
KREE 251340Z 23011KT 21/14 A3004 RMK A01 T02140136  RH  062%=      5-min Rain = 0
KREE 251345Z 23011KT 22/14 A3004 RMK A01 T02160138  RH  062%=      5-min Rain = 0
KREE 251350Z 23012KT 22/14 A3004 RMK A01 T02190140  RH  062%=      5-min Rain = 0
KREE 251355Z 23011KT 22/14 A3004 RMK A01 T02210142  RH  062%=      5-min Rain = 0
KREE 251400Z 23013KT 22/15 A3004 RMK A01 T02240145  RH  062%=      5-min Rain = 0
KREE 251405Z 22012KT 23/15 A3004 RMK A01 T02280149  RH  062%=      5-min Rain = 0
KREE 251410Z 22014KT 23/15 A3004 RMK A01 T02300151  RH  062%=      5-min Rain = 0
KREE 251415Z 22015KT 23/15 A3004 RMK A01 T02310152  RH  062%=      5-min Rain = 0
KREE 251420Z 22015KT 23/15 A3004 RMK A01 T02320153  RH  062%=      5-min Rain = 0
KREE 251425Z 22016KT 24/16 A3004 RMK A01 T02360156  RH  062%=      5-min Rain = 0
KREE 251430Z 22016G21KT 24/16 A3004 RMK A01 T02360155  RH  062%=      5-min Rain = 0
KREE 251435Z 22016KT 24/16 A3004 RMK A01 T02390156  RH  061%=      5-min Rain = 0
KREE 251440Z 22017KT 24/16 A3003 RMK A01 T02410157  RH  061%=      5-min Rain = 0
KREE 251445Z 22016G22KT 24/16 A3003 RMK A01 T02420157  RH  060%=      5-min Rain = 0
KREE 251450Z 22017KT 24/16 A3003 RMK A01 T02440157  RH  059%=      5-min Rain = 0
KREE 251455Z 21017KT 25/16 A3003 RMK A01 T02470157  RH  059%=      5-min Rain = 0
KREE 251500Z 23015G21KT 25/16 A3003 RMK A01 T02510159  RH  058%=      5-min Rain = 0
KREE 251505Z 22016G21KT 25/16 A3003 RMK A01 T02520158  RH  057%=      5-min Rain = 0
KREE 251510Z 22014G20KT 26/16 A3003 RMK A01 T02560160  RH  057%=      5-min Rain = 0
KREE 251515Z 22015G20KT 25/16 A3003 RMK A01 T02540158  RH  057%=      5-min Rain = 0
KREE 251520Z 23015KT 26/16 A3003 RMK A01 T02560158  RH  056%=      5-min Rain = 0
KREE 251525Z 22012G17KT 26/16 A3003 RMK A01 T02600162  RH  056%=      5-min Rain = 0
KREE 251530Z 23013KT 26/16 A3003 RMK A01 T02610160  RH  055%=      5-min Rain = 0
KREE 251535Z 22014G19KT 26/16 A3003 RMK A01 T02620160  RH  054%=      5-min Rain = 0
KREE 251540Z 22012KT 27/16 A3003 RMK A01 T02670161  RH  053%=      5-min Rain = 0
KREE 251545Z 23014G19KT 27/16 A3002 RMK A01 T02680157  RH  052%=      5-min Rain = 0
KREE 251550Z 22013G19KT 27/16 A3003 RMK A01 T02710159  RH  051%=      5-min Rain = 0
KREE 251555Z 22012KT 27/16 A3003 RMK A01 T02720157  RH  051%=      5-min Rain = 0
KREE 251600Z 21013KT 28/16 A3002 RMK A01 T02750158  RH  050%=      5-min Rain = 0
KREE 251605Z 21013KT 28/16 A3002 RMK A01 T02770156  RH  049%=      5-min Rain = 0
KREE 251610Z 22011G16KT 28/16 A3002 RMK A01 T02810157  RH  048%=      5-min Rain = 0
KREE 251615Z 22012KT 28/15 A3002 RMK A01 T02810154  RH  047%=      5-min Rain = 0
KREE 251620Z 21011KT 29/16 A3003 RMK A01 T02850157  RH  047%=      5-min Rain = 0
KREE 251625Z 22011KT 29/16 A3002 RMK A01 T02870155  RH  046%=      5-min Rain = 0
KREE 251630Z 22012KT 29/16 A3003 RMK A01 T02900155  RH  045%=      5-min Rain = 0
KREE 251635Z 20011KT 29/15 A3003 RMK A01 T02900151  RH  044%=      5-min Rain = 0
KREE 251640Z 21013KT 29/15 A3003 RMK A01 T02930150  RH  043%=      5-min Rain = 0
KREE 251645Z 21011KT 30/15 A3003 RMK A01 T02950150  RH  042%=      5-min Rain = 0
KREE 251650Z 20012G17KT 30/15 A3003 RMK A01 T02970147  RH  041%=      5-min Rain = 0
KREE 251655Z 20011KT 30/15 A3002 RMK A01 T02980149  RH  041%=      5-min Rain = 0
KREE 251700Z 20011KT 30/15 A3002 RMK A01 T03040148  RH  040%=      5-min Rain = 0
KREE 251705Z 20009KT 30/15 A3002 RMK A01 T03020147  RH  040%=      5-min Rain = 0
KREE 251710Z 19010G17KT 31/15 A3002 RMK A01 T03090151  RH  039%=      5-min Rain = 0
KREE 251715Z 19008KT 31/15 A3002 RMK A01 T03090150  RH  039%=      5-min Rain = 0
KREE 251720Z 18009KT 31/15 A3002 RMK A01 T03120145  RH  037%=      5-min Rain = 0
KREE 251725Z 18008G15KT 32/15 A3002 RMK A01 T03150148  RH  037%=      5-min Rain = 0
KREE 251730Z 18010G15KT 32/14 A3002 RMK A01 T03160144  RH  036%=      5-min Rain = 0
KREE 251735Z 19009G15KT 32/14 A3002 RMK A01 T03180144  RH  036%=      5-min Rain = 0
KREE 251740Z 18009KT 32/14 A3002 RMK A01 T03170142  RH  035%=      5-min Rain = 0
KREE 251745Z 18007G12KT 32/14 A3002 RMK A01 T03180139  RH  035%=      5-min Rain = 0
KREE 251750Z 19008G13KT 32/14 A3001 RMK A01 T03230137  RH  033%=      5-min Rain = 0
KREE 251755Z 19009G14KT 33/14 A3001 RMK A01 T03250135  RH  032%=      5-min Rain = 0
KREE 251800Z 20008G15KT 32/14 A3001 RMK A01 T03230139  RH  033%=      5-min Rain = 0
KREE 251805Z 19008KT 33/13 A3001 RMK A01 T03250134  RH  032%=      5-min Rain = 0
KREE 251810Z 18009KT 33/13 A3001 RMK A01 T03310132  RH  031%=      5-min Rain = 0
KREE 251815Z 18008G17KT 33/14 A3001 RMK A01 T03320136  RH  031%=      5-min Rain = 0
KREE 251820Z 20008KT 33/13 A3001 RMK A01 T03320125  RH  029%=      5-min Rain = 0
KREE 251825Z 17009G17KT 34/13 A3001 RMK A01 T03350125  RH  029%=      5-min Rain = 0
KREE 251830Z 17009G14KT 34/12 A3001 RMK A01 T03350119  RH  027%=      5-min Rain = 0
KREE 251835Z 18011KT 34/11 A3001 RMK A01 T03390114  RH  026%=      5-min Rain = 0
KREE 251840Z 17012KT 34/11 A3001 RMK A01 T03420106  RH  024%=      5-min Rain = 0
KREE 251845Z 16010G18KT 34/11 A3001 RMK A01 T03410106  RH  024%=      5-min Rain = 0
KREE 251850Z 16012KT 34/10 A30 RMK A01 T03420102  RH  024%=      5-min Rain = 0
KREE 251855Z 17011G20KT 34/10 A30 RMK A01 T03420103  RH  024%=      5-min Rain = 0
KREE 251900Z 17011G16KT 34/10 A30 RMK A01 T03440097  RH  023%=      5-min Rain = 0
KREE 251905Z 17011G17KT 34/10 A30 RMK A01 T03410096  RH  023%=      5-min Rain = 0
KREE 251910Z 16012G18KT 34/10 A30 RMK A01 T03430100  RH  023%=      5-min Rain = 0
KREE 251915Z 16009G15KT 35/10 A30 RMK A01 T03450099  RH  023%=      5-min Rain = 0
KREE 251920Z 18012KT 35/10 A30 RMK A01 T03450097  RH  022%=      5-min Rain = 0
KREE 251925Z 19010KT 34/09 A30 RMK A01 T03430092  RH  022%=      5-min Rain = 0
KREE 251930Z 16011KT 35/10 A30 RMK A01 T03460097  RH  022%=      5-min Rain = 0
KREE 251935Z 16012G19KT 35/09 A30 RMK A01 T03510094  RH  021%=      5-min Rain = 0
KREE 251940Z 15015KT 35/09 A2999 RMK A01 T03490090  RH  021%=      5-min Rain = 0
KREE 251945Z 16013G18KT 35/09 A2999 RMK A01 T03490091  RH  021%=      5-min Rain = 0
KREE 251950Z 17013KT 35/09 A2999 RMK A01 T03480085  RH  020%=      5-min Rain = 0
KREE 251955Z 19011KT 35/08 A2999 RMK A01 T03490080  RH  020%=      5-min Rain = 0
KREE 252000Z 15011G16KT 35/09 A2999 RMK A01 T03500088  RH  020%=      5-min Rain = 0
KREE 252005Z 15011KT 35/09 A2999 RMK A01 T03510092  RH  021%=      5-min Rain = 0
KREE 252010Z 17008G14KT 35/08 A2998 RMK A01 T03520077  RH  019%=      5-min Rain = 0
KREE 252015Z 15011G16KT 35/09 A2998 RMK A01 T03540091  RH  020%=      5-min Rain = 0
KREE 252020Z 16014G20KT 35/09 A2998 RMK A01 T03540089  RH  020%=      5-min Rain = 0
KREE 252025Z 15014G21KT 34/08 A2998 RMK A01 T03400084  RH  021%=      5-min Rain = 0
KREE 252030Z 16012G21KT 35/09 A2998 RMK A01 T03490092  RH  021%=      5-min Rain = 0
KREE 252035Z 16017G22KT 36/09 A2997 RMK A01 T03550094  RH  021%=      5-min Rain = 0
KREE 252040Z 15016G23KT 35/09 A2997 RMK A01 T03520091  RH  021%=      5-min Rain = 0
KREE 252045Z 16015G20KT 34/08 A2997 RMK A01 T03380077  RH  020%=      5-min Rain = 0
KREE 252050Z 15015G21KT 34/08 A2997 RMK A01 T03410083  RH  021%=      5-min Rain = 0
KREE 252055Z 13015G21KT 35/10 A2997 RMK A01 T03470103  RH  023%=      5-min Rain = 0
KREE 252100Z 16013KT 35/09 A2997 RMK A01 T03520089  RH  021%=      5-min Rain = 0
KREE 252105Z 15016G24KT 35/10 A2997 RMK A01 T03510095  RH  021%=      5-min Rain = 0
KREE 252110Z 12019G25KT 34/14 A2996 RMK A01 T03440139  RH  030%=      5-min Rain = 0
KREE 252115Z 13016KT 34/13 A2997 RMK A01 T03380132  RH  029%=      5-min Rain = 0
KREE 252120Z 14016G21KT 34/12 A2996 RMK A01 T03410121  RH  027%=      5-min Rain = 0
KREE 252125Z 15015G20KT 34/12 A2996 RMK A01 T03390121  RH  027%=      5-min Rain = 0
KREE 252130Z 15014G19KT 33/12 A2996 RMK A01 T03310117  RH  028%=      5-min Rain = 0
KREE 252135Z 15015G20KT 34/12 A2996 RMK A01 T03360118  RH  027%=      5-min Rain = 0
KREE 252140Z 15019G25KT 33/13 A2996 RMK A01 T03340133  RH  030%=      5-min Rain = 0
KREE 252145Z 15017G22KT 34/14 A2996 RMK A01 T03400137  RH  030%=      5-min Rain = 0
KREE 252150Z 15015G20KT 33/13 A2996 RMK A01 T03330133  RH  031%=      5-min Rain = 0
KREE 252155Z 16017G22KT 33/13 A2995 RMK A01 T03310134  RH  031%=      5-min Rain = 0
KREE 252200Z 15018G23KT 33/13 A2995 RMK A01 T03330132  RH  030%=      5-min Rain = 0
KREE 252205Z 14016G21KT 33/13 A2995 RMK A01 T03270129  RH  031%=      5-min Rain = 0
KREE 252210Z 15018G24KT 33/13 A2995 RMK A01 T03270130  RH  031%=      5-min Rain = 0
KREE 252215Z 14017KT 34/13 A2995 RMK A01 T03380129  RH  029%=      5-min Rain = 0
KREE 252220Z 13018G23KT 34/13 A2994 RMK A01 T03370129  RH  029%=      5-min Rain = 0
KREE 252225Z 14017G24KT 34/13 A2994 RMK A01 T03350126  RH  029%=      5-min Rain = 0
KREE 252230Z 15016G21KT 32/12 A2994 RMK A01 T03230120  RH  029%=      5-min Rain = 0
KREE 252235Z 15018G23KT 32/12 A2995 RMK A01 T03200118  RH  030%=      5-min Rain = 0
KREE 252240Z 15013G20KT 32/12 A2995 RMK A01 T03200120  RH  030%=      5-min Rain = 0
KREE 252245Z 15016KT 32/13 A2995 RMK A01 T03160126  RH  032%=      5-min Rain = 0
KREE 252250Z 15016KT 30/15 A2995 RMK A01 T02980146  RH  041%=      5-min Rain = 0
KREE 252255Z 15015KT 29/15 A2995 RMK A01 T02940150  RH  042%=      5-min Rain = 0
KREE 252300Z 15013G19KT 30/16 A2995 RMK A01 T02950161  RH  045%=      5-min Rain = 0
KREE 252305Z 15013KT 30/16 A2994 RMK A01 T02970163  RH  046%=      5-min Rain = 0.01
KREE 252310Z 14014KT 31/16 A2994 RMK A01 T03060162  RH  043%=      5-min Rain = 0
KREE 252315Z 14016G21KT 32/15 A2994 RMK A01 T03150145  RH  036%=      5-min Rain = 0
KREE 252320Z 14017G25KT 32/14 A2993 RMK A01 T03200143  RH  035%=      5-min Rain = 0
KREE 252325Z 15017G22KT 32/14 A2993 RMK A01 T03210140  RH  034%=      5-min Rain = 0
KREE 252330Z 14018G23KT 32/15 A2993 RMK A01 T03220147  RH  036%=      5-min Rain = 0
KREE 252335Z 14018KT 32/15 A2993 RMK A01 T03210148  RH  036%=      5-min Rain = 0
KREE 252340Z 14019KT 32/15 A2992 RMK A01 T03210145  RH  035%=      5-min Rain = 0
KREE 252345Z 14019G24KT 32/15 A2992 RMK A01 T03210146  RH  035%=      5-min Rain = 0
KREE 252350Z 14019G25KT 32/15 A2992 RMK A01 T03200151  RH  037%=      5-min Rain = 0
KREE 252355Z 14020G25KT 32/15 A2992 RMK A01 T03190149  RH  037%=      5-min Rain = 0
KREE 260000Z 14019G24KT 32/15 A2992 RMK A01 T03190152  RH  037%=      5-min Rain = 0
KREE 260005Z 14020G26KT 32/15 A2992 RMK A01 T03170154  RH  038%=      5-min Rain = 0
KREE 260010Z 15020G27KT 32/16 A2992 RMK A01 T03160156  RH  039%=      5-min Rain = 0
KREE 260015Z 14022G27KT 31/15 A2992 RMK A01 T03140154  RH  039%=      5-min Rain = 0
KREE 260020Z 14022G27KT 31/15 A2992 RMK A01 T03130153  RH  039%=      5-min Rain = 0
KREE 260025Z 14021G27KT 31/15 A2992 RMK A01 T03120154  RH  039%=      5-min Rain = 0
KREE 260030Z 14019G27KT 31/16 A2992 RMK A01 T03120157  RH  040%=      5-min Rain = 0
KREE 260035Z 14022G27KT 31/16 A2993 RMK A01 T03100157  RH  040%=      5-min Rain = 0
KREE 260040Z 14021G27KT 31/16 A2993 RMK A01 T03090155  RH  040%=      5-min Rain = 0
KREE 260045Z 14021G27KT 31/16 A2994 RMK A01 T03080157  RH  041%=      5-min Rain = 0
KREE 260050Z 14020G27KT 31/16 A2994 RMK A01 T03060158  RH  042%=      5-min Rain = 0
KREE 260055Z 14021G27KT 31/16 A2994 RMK A01 T03050156  RH  041%=      5-min Rain = 0
KREE 260100Z 13020G27KT 30/16 A2994 RMK A01 T03040157  RH  042%=      5-min Rain = 0
KREE 260105Z 13020G26KT 30/16 A2994 RMK A01 T03020157  RH  042%=      5-min Rain = 0
KREE 260110Z 13018G27KT 30/16 A2995 RMK A01 T03020157  RH  043%=      5-min Rain = 0
KREE 260115Z 13018G24KT 30/16 A2995 RMK A01 T03000157  RH  043%=      5-min Rain = 0
KREE 260120Z 13019G25KT 30/16 A2995 RMK A01 T02990155  RH  043%=      5-min Rain = 0
KREE 260125Z 13021G26KT 30/15 A2995 RMK A01 T02980154  RH  042%=      5-min Rain = 0
KREE 260130Z 13020G25KT 30/15 A2996 RMK A01 T02960154  RH  043%=      5-min Rain = 0
KREE 260135Z 13019G26KT 30/16 A2996 RMK A01 T02950155  RH  044%=      5-min Rain = 0
KREE 260140Z 13021G27KT 29/16 A2996 RMK A01 T02930155  RH  044%=      5-min Rain = 0
KREE 260145Z 14022G28KT 29/16 A2996 RMK A01 T02910156  RH  045%=      5-min Rain = 0
KREE 260150Z 14020G27KT 29/16 A2997 RMK A01 T02890157  RH  046%=      5-min Rain = 0
KREE 260155Z 13017G23KT 29/16 A2997 RMK A01 T02860158  RH  047%=      5-min Rain = 0
KREE 260200Z 12017KT 28/16 A2998 RMK A01 T02820160  RH  048%=      5-min Rain = 0
KREE 260205Z 12018G24KT 28/16 A2998 RMK A01 T02810160  RH  049%=      5-min Rain = 0
KREE 260210Z 12019KT 28/16 A2999 RMK A01 T02790159  RH  049%=      5-min Rain = 0
KREE 260215Z 13019G24KT 28/16 A2999 RMK A01 T02780158  RH  049%=      5-min Rain = 0
KREE 260220Z 12017G22KT 28/16 A2999 RMK A01 T02760157  RH  049%=      5-min Rain = 0
KREE 260225Z 13017G23KT 28/16 A30 RMK A01 T02750156  RH  049%=      5-min Rain = 0
KREE 260230Z 13017G26KT 27/16 A30 RMK A01 T02730156  RH  050%=      5-min Rain = 0
KREE 260235Z 13019G25KT 27/15 A30 RMK A01 T02730154  RH  049%=      5-min Rain = 0
KREE 260240Z 14019G26KT 27/15 A30 RMK A01 T02730153  RH  049%=      5-min Rain = 0
KREE 260245Z 13020G26KT 27/15 A3001 RMK A01 T02720154  RH  049%=      5-min Rain = 0
KREE 260250Z 14018G24KT 27/15 A3001 RMK A01 T02700154  RH  050%=      5-min Rain = 0
KREE 260255Z 13018G25KT 27/16 A3001 RMK A01 T02700155  RH  050%=      5-min Rain = 0
KREE 260300Z 13018G23KT 27/16 A3002 RMK A01 T02700156  RH  051%=      5-min Rain = 0
KREE 260305Z 12018KT 27/16 A3003 RMK A01 T02690157  RH  051%=      5-min Rain = 0
KREE 260310Z 11016G22KT 27/16 A3005 RMK A01 T02690157  RH  052%=      5-min Rain = 0
KREE 260315Z 08017G23KT 27/16 A3006 RMK A01 T02680158  RH  052%=      5-min Rain = 0
KREE 260320Z 07016G21KT 27/16 A3007 RMK A01 T02680157  RH  052%=      5-min Rain = 0
KREE 260325Z 07019G25KT 27/16 A3008 RMK A01 T02670155  RH  051%=      5-min Rain = 0
KREE 260330Z 08020G25KT 27/15 A3009 RMK A01 T02670154  RH  051%=      5-min Rain = 0
KREE 260335Z 07020G27KT 25/14 A3009 RMK A01 T02510142  RH  052%=      5-min Rain = 0
KREE 260340Z 07020G25KT 25/14 A3009 RMK A01 T02470144  RH  054%=      5-min Rain = 0
KREE 260345Z 07022G28KT 24/13 A301 RMK A01 T02370134  RH  054%=      5-min Rain = 0
KREE 260350Z 08019G26KT 23/14 A301 RMK A01 T02280138  RH  058%=      5-min Rain = 0
KREE 260355Z 08018KT 22/15 A301 RMK A01 T02180149  RH  067%=      5-min Rain = 0
KREE 260400Z 08018KT 21/16 A301 RMK A01 T02090157  RH  074%=      5-min Rain = 0
KREE 260405Z 07018KT 20/16 A3011 RMK A01 T02030160  RH  078%=      5-min Rain = 0
KREE 260410Z 07015G20KT 20/16 A3012 RMK A01 T02020159  RH  078%=      5-min Rain = 0
KREE 260415Z 08013KT 20/16 A3013 RMK A01 T02020159  RH  078%=      5-min Rain = 0
KREE 260420Z 09014KT 20/16 A3013 RMK A01 T02030161  RH  079%=      5-min Rain = 0
KREE 260425Z 09014KT 20/16 A3013 RMK A01 T02030161  RH  078%=      5-min Rain = 0
KREE 260430Z 09014KT 21/16 A3012 RMK A01 T02050160  RH  077%=      5-min Rain = 0
KREE 260435Z 09014KT 21/16 A3013 RMK A01 T02050160  RH  077%=      5-min Rain = 0
KREE 260440Z 09015KT 21/16 A3013 RMK A01 T02070159  RH  076%=      5-min Rain = 0
KREE 260445Z 09015KT 21/16 A3012 RMK A01 T02080160  RH  076%=      5-min Rain = 0
KREE 260450Z 09015KT 21/16 A3013 RMK A01 T02090162  RH  076%=      5-min Rain = 0
KREE 260455Z 10011KT 21/16 A3013 RMK A01 T02120163  RH  076%=      5-min Rain = 0

Page generated in 0.0097 seconds.